Albee, South Dakota
Current Conditions -  °F | °C
As of 12:34 PM on Saturday 20 Dec 2014 (Local Time) from KDXX Reporting Station
Haze Haze  
Wind Chill: -2°   Ceiling: Unl
Heat Index:   Visibility: 4mi
Dew Point:   Wind: 8mph
Humidity: 87%   Direction: 190°S
Pressure: 30.03"   Gusts: NA
Location:  45.0205°N, 96.5453°W
Report Text: KDXX 201834Z AUTO 19007KT 4SM BR CLR 02/00 A3003 RMK AO2
Loading
Personal Weather Stations






























Interactive Weather Map New forecast layout! Learn more

10-Day Weather Forecast

Advertisements
Track Severe Weather on mobile